createdAt,value
2023-12-22T00:01:08.299Z,6.79
2023-12-22T00:03:34.966Z,6.72
2023-12-22T00:06:01.550Z,6.74
2023-12-22T00:08:27.943Z,6.68
2023-12-22T00:10:54.382Z,6.75
2023-12-22T00:13:20.816Z,6.50
2023-12-22T00:15:47.221Z,6.66
2023-12-22T00:18:13.712Z,6.60
2023-12-22T00:20:40.123Z,6.63
2023-12-22T00:23:06.546Z,6.56
2023-12-22T00:25:33.024Z,6.32
2023-12-22T00:27:59.502Z,6.22
2023-12-22T00:30:26.071Z,6.29
2023-12-22T00:32:52.555Z,6.13
2023-12-22T00:35:19.021Z,6.28
2023-12-22T00:37:45.518Z,6.03
2023-12-22T00:40:12.163Z,6.09
2023-12-22T00:42:38.537Z,6.20
2023-12-22T00:45:05.579Z,6.21
2023-12-22T00:47:32.140Z,6.02
2023-12-22T00:49:58.668Z,6.16
2023-12-22T00:52:25.100Z,5.75
2023-12-22T00:54:51.658Z,5.68
2023-12-22T00:57:18.537Z,5.79
2023-12-22T00:59:48.632Z,5.45
2023-12-22T01:02:18.742Z,5.58
2023-12-22T01:04:45.707Z,5.76
2023-12-22T01:07:12.375Z,5.72
2023-12-22T01:09:38.866Z,5.28
2023-12-22T01:12:07.276Z,5.38
2023-12-22T01:14:34.671Z,5.36
2023-12-22T01:17:01.440Z,5.31
2023-12-22T01:19:28.263Z,5.10
2023-12-22T01:21:54.850Z,5.28
2023-12-22T01:24:21.350Z,5.39
2023-12-22T01:26:47.982Z,4.87
2023-12-22T01:29:14.412Z,5.47
2023-12-22T01:31:40.946Z,5.47
2023-12-22T01:34:07.478Z,5.07
2023-12-22T01:36:35.387Z,5.54
2023-12-22T01:39:01.848Z,5.11
2023-12-22T01:41:28.257Z,4.54
2023-12-22T01:43:54.772Z,3.40
2023-12-22T01:46:21.807Z,3.45
2023-12-22T01:48:48.872Z,3.18
2023-12-22T01:51:15.552Z,2.94
2023-12-22T01:53:42.167Z,3.04
2023-12-22T01:56:09.507Z,3.25
2023-12-22T01:58:37.571Z,3.35
2023-12-22T02:01:14.895Z,3.20
2023-12-22T02:03:41.854Z,3.39
2023-12-22T02:06:08.519Z,3.40
2023-12-22T02:08:35.964Z,3.82
2023-12-22T02:11:02.684Z,3.92
2023-12-22T02:13:29.971Z,4.05
2023-12-22T02:16:09.906Z,3.75
2023-12-22T02:18:39.977Z,3.86
2023-12-22T02:21:06.465Z,4.06
2023-12-22T02:23:33.089Z,4.16
2023-12-22T02:26:26.055Z,4.09
2023-12-22T02:28:55.161Z,4.14
2023-12-22T02:31:37.182Z,4.20
2023-12-22T02:34:09.113Z,3.95
2023-12-22T02:36:37.850Z,4.25
2023-12-22T02:39:05.621Z,4.40
2023-12-22T02:41:32.152Z,4.50
2023-12-22T02:43:58.811Z,4.53
2023-12-22T02:46:25.280Z,4.63
2023-12-22T02:48:51.735Z,4.67
2023-12-22T02:51:18.271Z,4.64
2023-12-22T02:53:44.637Z,4.78
2023-12-22T02:56:11.036Z,4.53
2023-12-22T02:58:37.492Z,4.17
2023-12-22T03:01:04.179Z,4.11
2023-12-22T03:03:30.651Z,4.03
2023-12-22T03:05:57.086Z,4.09
2023-12-22T03:08:23.583Z,4.01
2023-12-22T03:10:50.081Z,3.98
2023-12-22T03:13:16.768Z,3.92
2023-12-22T03:15:43.176Z,3.81
2023-12-22T03:18:09.618Z,3.61
2023-12-22T03:20:36.057Z,3.83
2023-12-22T03:23:02.633Z,3.75
2023-12-22T03:25:29.080Z,3.44
2023-12-22T03:27:55.470Z,3.75
2023-12-22T03:30:21.936Z,3.79
2023-12-22T03:32:48.483Z,3.34
2023-12-22T03:35:15.138Z,3.51
2023-12-22T03:37:41.539Z,3.60
2023-12-22T03:40:08.740Z,3.65
2023-12-22T03:42:35.178Z,3.66
2023-12-22T03:45:01.566Z,3.60
2023-12-22T03:47:28.015Z,3.79
2023-12-22T03:49:54.439Z,3.97
2023-12-22T03:52:21.112Z,4.04
2023-12-22T03:54:47.638Z,3.71
2023-12-22T03:57:14.061Z,4.11
2023-12-22T03:59:40.504Z,4.33
2023-12-22T04:02:07.236Z,3.89
2023-12-22T04:04:33.721Z,4.11
2023-12-22T04:07:00.112Z,4.20
2023-12-22T04:09:26.518Z,4.40
2023-12-22T04:11:52.944Z,4.34
2023-12-22T04:14:19.789Z,4.33
2023-12-22T04:16:46.775Z,4.08
2023-12-22T04:19:13.583Z,4.08
2023-12-22T04:21:40.227Z,4.41
2023-12-22T04:24:06.990Z,4.47
2023-12-22T04:26:33.398Z,4.52
2023-12-22T04:28:59.958Z,4.56
2023-12-22T04:31:26.409Z,4.38
2023-12-22T04:33:52.829Z,4.54
2023-12-22T04:36:19.320Z,4.53
2023-12-22T04:38:45.708Z,4.66
2023-12-22T04:41:12.160Z,4.55
2023-12-22T04:43:38.616Z,4.73
2023-12-22T04:46:05.008Z,4.92
2023-12-22T04:48:31.704Z,4.88
2023-12-22T04:50:58.196Z,4.77
2023-12-22T04:53:24.742Z,4.69
2023-12-22T04:55:51.272Z,4.99
2023-12-22T04:58:17.800Z,4.97
2023-12-22T05:00:44.391Z,5.06
2023-12-22T05:03:10.926Z,5.17
2023-12-22T05:05:37.364Z,4.62
2023-12-22T05:08:04.081Z,5.00
2023-12-22T05:10:30.869Z,5.17
2023-12-22T05:12:57.318Z,5.40
2023-12-22T05:15:23.707Z,5.27
2023-12-22T05:17:50.416Z,4.99
2023-12-22T05:20:17.613Z,4.67
2023-12-22T05:22:44.144Z,4.68
2023-12-22T05:25:11.524Z,4.47
2023-12-22T05:27:37.995Z,4.23
2023-12-22T05:30:05.079Z,4.23
2023-12-22T05:32:31.551Z,3.74
2023-12-22T05:34:58.118Z,3.86
2023-12-22T05:37:24.626Z,3.99
2023-12-22T05:39:51.072Z,4.01
2023-12-22T05:42:17.800Z,4.15
2023-12-22T05:44:44.781Z,3.92
2023-12-22T05:47:11.960Z,3.94
2023-12-22T05:49:40.720Z,3.75
2023-12-22T05:52:07.191Z,3.96
2023-12-22T05:54:33.773Z,3.88
2023-12-22T05:57:00.716Z,3.53
2023-12-22T05:59:28.740Z,3.15
2023-12-22T06:01:55.529Z,3.52
2023-12-22T06:04:22.107Z,3.42
2023-12-22T06:06:48.613Z,3.57
2023-12-22T06:09:15.146Z,3.57
2023-12-22T06:11:41.571Z,3.58
2023-12-22T06:14:08.095Z,3.55
2023-12-22T06:16:34.719Z,3.46
2023-12-22T06:19:01.211Z,3.81
2023-12-22T06:21:27.671Z,3.67
2023-12-22T06:23:54.068Z,3.50
2023-12-22T06:26:20.502Z,3.93
2023-12-22T06:28:46.936Z,3.90
2023-12-22T06:31:21.876Z,4.12
2023-12-22T06:33:49.501Z,4.27
2023-12-22T06:36:25.990Z,4.06
2023-12-22T06:38:54.401Z,4.38
2023-12-22T06:41:27.997Z,4.53
2023-12-22T06:43:56.322Z,4.56
2023-12-22T06:46:24.235Z,4.42
2023-12-22T06:48:50.883Z,4.55
2023-12-22T06:51:25.039Z,4.55
2023-12-22T06:53:51.737Z,4.46
2023-12-22T06:56:20.965Z,4.49
2023-12-22T06:58:49.632Z,4.39
2023-12-22T07:01:20.991Z,4.58
2023-12-22T07:03:49.282Z,4.45
2023-12-22T07:06:20.429Z,4.36
2023-12-22T07:09:15.246Z,4.68
2023-12-22T07:11:44.065Z,4.29
2023-12-22T07:14:12.327Z,4.66
2023-12-22T07:16:39.525Z,4.38
2023-12-22T07:19:06.515Z,4.60
2023-12-22T07:21:32.997Z,4.56
2023-12-22T07:24:00.440Z,4.80
2023-12-22T07:26:30.226Z,4.85
2023-12-22T07:28:56.887Z,4.93
2023-12-22T07:31:23.982Z,4.56
2023-12-22T07:33:50.580Z,4.24
2023-12-22T07:36:19.605Z,4.06
2023-12-22T07:38:46.221Z,3.68
2023-12-22T07:41:12.823Z,3.68
2023-12-22T07:43:39.763Z,3.47
2023-12-22T07:46:06.252Z,3.56
2023-12-22T07:48:32.920Z,3.36
2023-12-22T07:50:59.420Z,3.54
2023-12-22T07:53:25.853Z,3.81
2023-12-22T07:55:52.325Z,3.79
2023-12-22T07:58:18.818Z,3.79
2023-12-22T08:00:45.381Z,3.76
2023-12-22T08:03:11.812Z,3.77
2023-12-22T08:05:38.259Z,3.97
2023-12-22T08:08:05.124Z,4.01
2023-12-22T08:10:31.604Z,4.05
2023-12-22T08:12:59.014Z,3.94
2023-12-22T08:15:33.046Z,4.32
2023-12-22T08:18:03.367Z,4.24
2023-12-22T08:20:33.424Z,3.84
2023-12-22T08:23:06.914Z,3.69
2023-12-22T08:25:36.592Z,3.92
2023-12-22T08:28:03.465Z,4.06
2023-12-22T08:30:29.869Z,4.10
2023-12-22T08:32:56.447Z,3.82
2023-12-22T08:35:22.951Z,4.18
2023-12-22T08:37:49.801Z,4.27
2023-12-22T08:40:16.436Z,4.06
2023-12-22T08:42:42.977Z,4.25
2023-12-22T08:45:09.521Z,4.58
2023-12-22T08:47:36.024Z,4.01
2023-12-22T08:50:05.225Z,4.66
2023-12-22T08:52:31.784Z,4.72
2023-12-22T08:54:58.185Z,4.61
2023-12-22T08:57:25.055Z,4.41
2023-12-22T08:59:51.444Z,4.82
2023-12-22T09:02:17.860Z,4.54
2023-12-22T09:04:44.333Z,4.63
2023-12-22T09:07:11.132Z,4.49
2023-12-22T09:09:37.561Z,4.93
2023-12-22T09:12:05.735Z,4.71
2023-12-22T09:14:32.263Z,5.09
2023-12-22T09:16:58.699Z,5.17
2023-12-22T09:19:25.285Z,4.95
2023-12-22T09:21:51.797Z,5.36
2023-12-22T09:24:18.212Z,5.34
2023-12-22T09:26:44.833Z,5.24
2023-12-22T09:29:11.259Z,5.46
2023-12-22T09:31:37.811Z,5.50
2023-12-22T09:34:04.864Z,5.48
2023-12-22T09:36:31.428Z,5.71
2023-12-22T09:38:57.832Z,5.50
2023-12-22T09:41:24.333Z,5.86
2023-12-22T09:43:51.824Z,5.68
2023-12-22T09:46:20.708Z,5.76
2023-12-22T09:48:48.192Z,5.50
2023-12-22T09:51:15.416Z,5.85
2023-12-22T09:53:42.910Z,5.76
2023-12-22T09:56:09.897Z,6.25
2023-12-22T09:58:37.572Z,6.52
2023-12-22T10:01:06.614Z,6.56
2023-12-22T10:03:38.460Z,6.54
2023-12-22T10:06:05.550Z,6.01
2023-12-22T10:08:32.546Z,6.33
2023-12-22T10:10:59.429Z,6.20
2023-12-22T10:13:29.068Z,5.98
2023-12-22T10:15:57.008Z,6.13
2023-12-22T10:18:23.883Z,5.86
2023-12-22T10:20:50.390Z,6.05
2023-12-22T10:23:16.785Z,6.13
2023-12-22T10:25:43.443Z,5.93
2023-12-22T10:28:12.877Z,6.05
2023-12-22T10:30:40.936Z,6.19
2023-12-22T10:33:08.223Z,6.08
2023-12-22T10:35:34.725Z,6.20
2023-12-22T10:38:03.705Z,6.19
2023-12-22T10:40:31.224Z,6.08
2023-12-22T10:42:58.032Z,6.12
2023-12-22T10:45:25.738Z,5.76
2023-12-22T10:47:53.144Z,5.97
2023-12-22T10:50:25.562Z,5.78
2023-12-22T10:52:52.886Z,5.38
2023-12-22T10:55:20.338Z,5.03
2023-12-22T10:57:48.056Z,4.43
2023-12-22T11:00:20.856Z,4.06
2023-12-22T11:02:52.451Z,4.07
2023-12-22T11:05:19.273Z,4.13
2023-12-22T11:07:51.220Z,4.17
2023-12-22T11:10:21.984Z,4.20
2023-12-22T11:12:49.598Z,4.10
2023-12-22T11:15:16.254Z,4.00
2023-12-22T11:17:43.789Z,4.13
2023-12-22T11:20:11.753Z,4.08
2023-12-22T11:22:39.954Z,4.16
2023-12-22T11:25:09.231Z,4.17
2023-12-22T11:27:38.804Z,3.95
2023-12-22T11:30:09.848Z,3.96
2023-12-22T11:32:37.305Z,4.01
2023-12-22T11:35:05.394Z,4.03
2023-12-22T11:37:33.276Z,4.03
2023-12-22T11:39:59.776Z,3.63
2023-12-22T11:42:33.467Z,3.70
2023-12-22T11:45:00.121Z,3.87
2023-12-22T11:47:29.885Z,3.75
2023-12-22T11:49:56.900Z,3.89
2023-12-22T11:52:29.437Z,4.25
2023-12-22T11:54:57.212Z,4.17
2023-12-22T11:57:29.832Z,4.32
2023-12-22T11:59:56.792Z,4.54
2023-12-22T12:02:23.715Z,4.69
2023-12-22T12:04:51.961Z,4.91
2023-12-22T12:07:37.428Z,5.14
2023-12-22T12:10:04.116Z,5.08
2023-12-22T12:12:32.433Z,4.97
2023-12-22T12:15:07.989Z,4.97
2023-12-22T12:17:34.558Z,4.98
2023-12-22T12:20:01.102Z,4.55
2023-12-22T12:22:29.181Z,4.85
2023-12-22T12:24:55.745Z,4.90
2023-12-22T12:27:22.361Z,4.83
2023-12-22T12:29:48.934Z,4.90
2023-12-22T12:32:15.932Z,4.87
2023-12-22T12:34:45.615Z,4.93
2023-12-22T12:37:12.261Z,5.07
2023-12-22T12:39:40.856Z,5.08
2023-12-22T12:42:08.945Z,5.14
2023-12-22T12:44:36.602Z,5.18
2023-12-22T12:47:13.287Z,5.27
2023-12-22T12:49:39.915Z,5.33
2023-12-22T12:52:07.225Z,5.32
2023-12-22T12:54:33.796Z,5.35
2023-12-22T12:57:00.347Z,5.35
2023-12-22T12:59:26.771Z,5.49
2023-12-22T13:01:54.407Z,5.53
2023-12-22T13:04:20.929Z,5.62
2023-12-22T13:06:51.070Z,5.57
2023-12-22T13:09:19.039Z,5.60
2023-12-22T13:11:49.848Z,5.60
2023-12-22T13:14:28.992Z,5.68
2023-12-22T13:16:58.454Z,5.70
2023-12-22T13:19:26.728Z,5.69
2023-12-22T13:21:57.119Z,5.73
2023-12-22T13:24:24.237Z,5.71
2023-12-22T13:27:02.112Z,5.71
2023-12-22T13:29:29.537Z,5.65
2023-12-22T13:31:56.576Z,5.81
2023-12-22T13:34:23.035Z,5.52
2023-12-22T13:36:49.607Z,5.81
2023-12-22T13:39:16.265Z,5.85
2023-12-22T13:41:46.482Z,5.85
2023-12-22T13:44:14.032Z,5.81
2023-12-22T13:46:43.296Z,5.90
2023-12-22T13:49:11.620Z,5.97
2023-12-22T13:51:45.927Z,6.00
2023-12-22T13:54:12.837Z,5.99
2023-12-22T13:56:43.732Z,5.96
2023-12-22T13:59:10.991Z,6.06
2023-12-22T14:01:37.614Z,5.90
2023-12-22T14:04:04.137Z,5.88
2023-12-22T14:06:30.941Z,5.50
2023-12-22T14:08:58.006Z,5.67
2023-12-22T14:11:24.388Z,5.33
2023-12-22T14:13:50.947Z,5.17
2023-12-22T14:16:17.471Z,5.19
2023-12-22T14:18:44.217Z,5.00
2023-12-22T14:21:10.753Z,4.86
2023-12-22T14:23:37.146Z,4.99
2023-12-22T14:26:04.203Z,4.69
2023-12-22T14:28:30.888Z,4.87
2023-12-22T14:30:57.390Z,4.61
2023-12-22T14:33:23.872Z,4.55
2023-12-22T14:35:50.377Z,4.63
2023-12-22T14:38:16.901Z,4.49
2023-12-22T14:40:43.392Z,4.69
2023-12-22T14:43:09.831Z,4.86
2023-12-22T14:45:36.634Z,4.73
2023-12-22T14:48:03.323Z,4.99
2023-12-22T14:50:29.862Z,5.14
2023-12-22T14:52:56.334Z,5.10
2023-12-22T14:55:22.859Z,5.08
2023-12-22T14:57:50.144Z,5.12
2023-12-22T15:00:17.591Z,5.19
2023-12-22T15:02:44.104Z,4.93
2023-12-22T15:05:10.972Z,5.14
2023-12-22T15:07:37.683Z,5.19
2023-12-22T15:10:06.589Z,4.98
2023-12-22T15:12:37.197Z,5.07
2023-12-22T15:15:04.195Z,5.28
2023-12-22T15:17:32.704Z,5.33
2023-12-22T15:20:00.764Z,5.33
2023-12-22T15:22:28.165Z,5.02
2023-12-22T15:24:54.549Z,5.05
2023-12-22T15:27:21.005Z,5.32
2023-12-22T15:29:48.294Z,5.29
2023-12-22T15:32:14.900Z,5.14
2023-12-22T15:34:44.575Z,5.06
2023-12-22T15:37:11.055Z,5.11
2023-12-22T15:39:37.514Z,5.30
2023-12-22T15:42:04.255Z,5.07
2023-12-22T15:44:30.891Z,5.44
2023-12-22T15:46:57.357Z,5.34
2023-12-22T15:49:23.817Z,5.27
2023-12-22T15:51:53.941Z,5.44
2023-12-22T15:54:20.372Z,5.51
2023-12-22T15:56:46.828Z,5.32
2023-12-22T15:59:13.515Z,5.32
2023-12-22T16:01:46.674Z,5.22
2023-12-22T16:04:13.230Z,5.17
2023-12-22T16:06:39.900Z,5.25
2023-12-22T16:09:06.435Z,5.31
2023-12-22T16:11:33.532Z,5.56
2023-12-22T16:14:00.069Z,5.46
2023-12-22T16:16:26.628Z,5.51
2023-12-22T16:18:53.228Z,5.24
2023-12-22T16:21:19.913Z,5.05
2023-12-22T16:23:46.363Z,5.55
2023-12-22T16:26:12.889Z,5.34
2023-12-22T16:28:39.401Z,4.74
2023-12-22T16:31:05.845Z,4.82
2023-12-22T16:33:32.425Z,4.40
2023-12-22T16:35:59.029Z,4.37
2023-12-22T16:38:25.986Z,4.55
2023-12-22T16:40:52.457Z,4.23
2023-12-22T16:43:18.884Z,4.41
2023-12-22T16:45:45.404Z,4.39
2023-12-22T16:48:11.915Z,4.56
2023-12-22T16:50:38.341Z,4.61
2023-12-22T16:53:04.884Z,4.43
2023-12-22T16:55:31.451Z,4.34
2023-12-22T16:57:58.304Z,4.65
2023-12-22T17:00:24.716Z,4.47
2023-12-22T17:02:51.502Z,4.74
2023-12-22T17:05:18.727Z,4.51
2023-12-22T17:07:46.538Z,4.77
2023-12-22T17:10:14.122Z,4.90
2023-12-22T17:12:40.664Z,4.94
2023-12-22T17:15:07.907Z,4.46
2023-12-22T17:17:34.667Z,4.90
2023-12-22T17:20:03.202Z,4.66
2023-12-22T17:22:30.898Z,4.91
2023-12-22T17:24:57.469Z,5.15
2023-12-22T17:27:24.184Z,5.05
2023-12-22T17:29:50.689Z,5.09
2023-12-22T17:32:17.236Z,4.87
2023-12-22T17:34:43.758Z,5.23
2023-12-22T17:37:11.371Z,5.31
2023-12-22T17:39:38.226Z,5.21
2023-12-22T17:42:05.005Z,5.31
2023-12-22T17:44:31.450Z,5.24
2023-12-22T17:47:01.873Z,5.18
2023-12-22T17:49:28.372Z,5.08
2023-12-22T17:51:54.823Z,5.10
2023-12-22T17:54:21.711Z,5.10
2023-12-22T17:56:48.294Z,5.09
2023-12-22T17:59:14.716Z,5.08
2023-12-22T18:01:42.851Z,5.22
2023-12-22T18:04:09.512Z,5.08
2023-12-22T18:06:35.983Z,4.91
2023-12-22T18:09:04.442Z,4.74
2023-12-22T18:11:30.961Z,5.07
2023-12-22T18:13:57.450Z,5.09
2023-12-22T18:16:23.947Z,5.03
2023-12-22T18:18:50.542Z,5.06
2023-12-22T18:21:17.107Z,4.83
2023-12-22T18:23:45.769Z,4.96
2023-12-22T18:26:12.990Z,4.65
2023-12-22T18:28:39.406Z,4.97
2023-12-22T18:31:05.958Z,4.96
2023-12-22T18:33:32.484Z,4.84
2023-12-22T18:36:01.284Z,4.68
2023-12-22T18:38:27.725Z,4.76
2023-12-22T18:40:54.177Z,4.98
2023-12-22T18:43:20.628Z,5.17
2023-12-22T18:45:47.011Z,4.81
2023-12-22T18:48:13.655Z,4.88
2023-12-22T18:50:40.192Z,5.05
2023-12-22T18:53:07.715Z,5.12
2023-12-22T18:55:34.473Z,5.29
2023-12-22T18:58:01.230Z,5.29
2023-12-22T19:00:27.680Z,5.04
2023-12-22T19:02:59.041Z,5.46
2023-12-22T19:05:27.207Z,5.50
2023-12-22T19:07:54.245Z,5.11
2023-12-22T19:10:21.011Z,5.30
2023-12-22T19:12:50.375Z,5.61
2023-12-22T19:15:17.305Z,5.48
2023-12-22T19:17:44.508Z,5.61
2023-12-22T19:20:11.591Z,5.60
2023-12-22T19:22:38.201Z,5.55
2023-12-22T19:25:05.007Z,5.09
2023-12-22T19:27:32.556Z,5.58
2023-12-22T19:29:58.972Z,5.19
2023-12-22T19:32:25.676Z,5.36
2023-12-22T19:34:52.408Z,5.40
2023-12-22T19:37:19.919Z,5.09
2023-12-22T19:39:46.645Z,5.41
2023-12-22T19:42:13.463Z,5.32
2023-12-22T19:44:40.357Z,5.30
2023-12-22T19:47:07.007Z,5.05
2023-12-22T19:49:36.025Z,5.34
2023-12-22T19:52:03.959Z,5.45
2023-12-22T19:54:30.780Z,5.34
2023-12-22T19:56:57.289Z,5.19
2023-12-22T19:59:23.752Z,5.47
2023-12-22T20:01:50.187Z,5.46
2023-12-22T20:04:16.766Z,5.49
2023-12-22T20:06:45.270Z,5.48
2023-12-22T20:09:11.792Z,5.44
2023-12-22T20:11:38.168Z,5.54
2023-12-22T20:14:04.759Z,5.48
2023-12-22T20:16:31.225Z,5.53
2023-12-22T20:18:58.413Z,5.56
2023-12-22T20:21:25.038Z,5.44
2023-12-22T20:23:52.985Z,5.54
2023-12-22T20:26:19.700Z,5.45
2023-12-22T20:28:46.247Z,5.56
2023-12-22T20:31:12.746Z,5.27
2023-12-22T20:33:39.346Z,5.59
2023-12-22T20:36:06.208Z,5.62
2023-12-22T20:38:32.599Z,5.60
2023-12-22T20:40:58.998Z,5.52
2023-12-22T20:43:25.627Z,5.42
2023-12-22T20:45:52.728Z,5.50
2023-12-22T20:48:19.397Z,5.42
2023-12-22T20:50:45.858Z,5.52
2023-12-22T20:53:12.429Z,5.58
2023-12-22T20:55:40.325Z,5.62
2023-12-22T20:58:07.784Z,5.62
2023-12-22T21:00:34.981Z,5.53
2023-12-22T21:03:01.894Z,5.48
2023-12-22T21:05:29.634Z,5.51
2023-12-22T21:07:56.888Z,5.35
2023-12-22T21:10:23.551Z,5.63
2023-12-22T21:12:50.208Z,5.59
2023-12-22T21:15:16.681Z,5.18
2023-12-22T21:17:43.405Z,5.41
2023-12-22T21:20:10.551Z,4.91
2023-12-22T21:22:37.005Z,5.22
2023-12-22T21:25:03.580Z,5.11
2023-12-22T21:27:30.111Z,4.77
2023-12-22T21:29:57.090Z,4.82
2023-12-22T21:32:23.557Z,4.72
2023-12-22T21:34:49.988Z,4.74
2023-12-22T21:37:16.878Z,4.70
2023-12-22T21:39:43.366Z,4.61
2023-12-22T21:42:09.739Z,4.64
2023-12-22T21:44:42.838Z,4.56
2023-12-22T21:47:12.374Z,4.59
2023-12-22T21:49:42.519Z,4.51
2023-12-22T21:52:09.115Z,4.50
2023-12-22T21:54:36.295Z,4.19
2023-12-22T21:57:04.257Z,4.72
2023-12-22T21:59:30.943Z,4.67
2023-12-22T22:01:57.455Z,4.46
2023-12-22T22:04:27.198Z,4.29
2023-12-22T22:06:57.043Z,3.98
2023-12-22T22:09:23.458Z,4.19
2023-12-22T22:11:49.840Z,4.15
2023-12-22T22:14:25.981Z,3.83
2023-12-22T22:16:56.294Z,3.64
2023-12-22T22:19:23.287Z,3.72
2023-12-22T22:21:49.789Z,4.04
2023-12-22T22:24:16.245Z,3.58
2023-12-22T22:26:42.764Z,3.95
2023-12-22T22:29:09.797Z,3.95
2023-12-22T22:31:43.176Z,3.58
2023-12-22T22:34:10.977Z,3.95
2023-12-22T22:36:38.163Z,3.83
2023-12-22T22:39:05.257Z,3.97
2023-12-22T22:41:32.131Z,4.03
2023-12-22T22:43:58.734Z,3.80
2023-12-22T22:46:25.190Z,3.71
2023-12-22T22:48:51.676Z,3.66
2023-12-22T22:51:25.948Z,3.90
2023-12-22T22:53:52.815Z,3.88
2023-12-22T22:56:20.134Z,3.92
2023-12-22T22:58:46.624Z,3.80
2023-12-22T23:01:13.212Z,3.48
2023-12-22T23:03:39.849Z,3.62
2023-12-22T23:06:07.526Z,3.94
2023-12-22T23:08:34.547Z,3.67
2023-12-22T23:11:02.444Z,3.98
2023-12-22T23:13:29.171Z,3.99
2023-12-22T23:15:55.607Z,4.06
2023-12-22T23:18:22.220Z,3.79
2023-12-22T23:20:48.677Z,3.90
2023-12-22T23:23:15.304Z,3.92
2023-12-22T23:25:41.803Z,3.98
2023-12-22T23:28:08.639Z,3.67
2023-12-22T23:30:35.086Z,4.01
2023-12-22T23:33:02.077Z,4.11
2023-12-22T23:35:28.848Z,4.15
2023-12-22T23:37:55.378Z,4.14
2023-12-22T23:40:21.995Z,4.10
2023-12-22T23:42:48.422Z,4.19
2023-12-22T23:45:15.037Z,3.72
2023-12-22T23:47:41.525Z,4.14
2023-12-22T23:50:08.812Z,3.82
2023-12-22T23:52:35.547Z,4.04
2023-12-22T23:55:02.019Z,4.09
2023-12-22T23:57:28.459Z,4.23
2023-12-22T23:59:54.832Z,4.21
